Terminal Aerodrome Forecast
Issued by NWS

Home | Current Version | Previous Version | Text Only | Print | Product List | Glossary On
Versions: 1 2 3 4 5 6 7 8 9 10 11 12 13 14 15 16 17 18 19
000
FTUS41 KBTV 011700
TAFSLK
TAF
KSLK 011723Z 0118/0218 23009KT P6SM SCT050 BKN110
     FM020000 00000KT P6SM SCT050
     FM020600 00000KT 3/4SM BR BKN002
     FM021300 21006KT P6SM SCT040 BKN120=

USA.gov is the U.S. government's official web portal to all federal, state and local government web resources and services.